createdAt,value
2022-09-06T00:00:30.913Z,21.81
2022-09-06T00:03:03.844Z,21.81
2022-09-06T00:05:36.772Z,21.83
2022-09-06T00:08:08.804Z,21.78
2022-09-06T00:10:42.958Z,21.78
2022-09-06T00:13:14.922Z,21.77
2022-09-06T00:15:47.093Z,21.69
2022-09-06T00:18:19.053Z,21.65
2022-09-06T00:20:51.063Z,21.64
2022-09-06T00:23:23.011Z,21.60
2022-09-06T00:26:03.980Z,21.54
2022-09-06T00:28:35.945Z,21.51
2022-09-06T00:31:14.177Z,21.48
2022-09-06T00:33:46.245Z,21.45
2022-09-06T00:36:19.647Z,21.34
2022-09-06T00:38:51.608Z,21.32
2022-09-06T00:41:23.746Z,21.30
2022-09-06T00:43:55.745Z,21.29
2022-09-06T00:46:30.854Z,21.18
2022-09-06T00:49:10.747Z,21.11
2022-09-06T00:51:43.347Z,21.06
2022-09-06T00:54:15.671Z,21.02
2022-09-06T00:56:48.173Z,20.92
2022-09-06T00:59:20.174Z,20.82
2022-09-06T01:01:52.512Z,20.76
2022-09-06T01:04:25.435Z,20.70
2022-09-06T01:07:11.624Z,20.66
2022-09-06T01:10:05.986Z,20.63
2022-09-06T01:13:01.092Z,20.59
2022-09-06T01:16:00.018Z,20.53
2022-09-06T01:18:32.044Z,20.52
2022-09-06T01:21:32.327Z,20.53
2022-09-06T01:24:58.707Z,20.45
2022-09-06T01:28:07.264Z,20.41
2022-09-06T01:30:49.247Z,20.39
2022-09-06T01:33:34.723Z,20.35
2022-09-06T01:36:12.360Z,20.35
2022-09-06T01:38:44.572Z,20.33
2022-09-06T01:41:16.565Z,20.31
2022-09-06T01:43:52.736Z,20.24
2022-09-06T01:46:45.026Z,20.24
2022-09-06T01:49:56.209Z,20.23
2022-09-06T01:53:26.946Z,20.30
2022-09-06T01:56:27.175Z,20.29
2022-09-06T01:59:43.881Z,20.32
2022-09-06T02:02:54.839Z,20.27
2022-09-06T02:05:55.744Z,20.26
2022-09-06T02:08:34.329Z,20.20
2022-09-06T02:11:09.033Z,20.21
2022-09-06T02:13:54.363Z,20.24
2022-09-06T02:16:30.194Z,20.20
2022-09-06T02:19:14.205Z,20.25
2022-09-06T02:21:47.765Z,20.23
2022-09-06T02:24:26.375Z,20.25
2022-09-06T02:26:58.466Z,20.23
2022-09-06T02:29:30.799Z,20.24
2022-09-06T02:32:16.948Z,20.26
2022-09-06T02:34:51.643Z,20.28
2022-09-06T02:37:26.295Z,20.28
2022-09-06T02:39:58.344Z,20.32
2022-09-06T02:42:30.487Z,20.37
2022-09-06T02:45:02.462Z,20.36
2022-09-06T02:47:34.425Z,20.33
2022-09-06T02:50:08.309Z,20.37
2022-09-06T02:52:40.311Z,20.34
2022-09-06T02:55:12.510Z,20.37
2022-09-06T02:57:44.477Z,20.32
2022-09-06T03:00:16.505Z,20.33
2022-09-06T03:02:48.789Z,20.32
2022-09-06T03:05:20.791Z,20.32
2022-09-06T03:07:54.469Z,20.30
2022-09-06T03:10:26.893Z,20.30
2022-09-06T03:12:59.150Z,20.26
2022-09-06T03:15:31.105Z,20.25
2022-09-06T03:18:03.092Z,20.25
2022-09-06T03:20:37.152Z,20.22
2022-09-06T03:23:09.753Z,20.26
2022-09-06T03:25:44.631Z,20.21
2022-09-06T03:28:18.010Z,20.20
2022-09-06T03:30:51.836Z,20.21
2022-09-06T03:33:24.348Z,20.13
2022-09-06T03:36:00.143Z,20.13
2022-09-06T03:38:32.134Z,20.07
2022-09-06T03:41:04.182Z,19.99
2022-09-06T03:43:36.225Z,20.00
2022-09-06T03:46:08.420Z,19.97
2022-09-06T03:48:40.563Z,19.97
2022-09-06T03:51:12.515Z,19.88
2022-09-06T03:53:44.501Z,19.89
2022-09-06T03:56:16.621Z,19.98
2022-09-06T03:58:48.717Z,19.94
2022-09-06T04:01:21.031Z,19.92
2022-09-06T04:03:53.099Z,19.96
2022-09-06T04:06:25.109Z,19.93
2022-09-06T04:08:57.075Z,19.93
2022-09-06T04:11:29.033Z,19.94
2022-09-06T04:14:01.002Z,19.90
2022-09-06T04:16:33.048Z,19.88
2022-09-06T04:19:05.050Z,19.89
2022-09-06T04:21:36.993Z,19.89
2022-09-06T04:24:09.021Z,19.85
2022-09-06T04:26:41.026Z,19.90
2022-09-06T04:29:13.141Z,19.90
2022-09-06T04:31:45.216Z,19.89
2022-09-06T04:34:17.428Z,19.86
2022-09-06T04:36:49.385Z,19.87
2022-09-06T04:39:21.477Z,19.91
2022-09-06T04:41:53.450Z,19.91
2022-09-06T04:44:25.520Z,19.86
2022-09-06T04:47:12.831Z,19.89
2022-09-06T04:49:46.127Z,19.84
2022-09-06T04:52:18.121Z,19.81
2022-09-06T04:54:50.095Z,19.76
2022-09-06T04:57:22.047Z,19.72
2022-09-06T04:59:54.159Z,19.69
2022-09-06T05:02:26.289Z,19.71
2022-09-06T05:04:58.327Z,19.74
2022-09-06T05:07:30.473Z,19.71
2022-09-06T05:10:02.506Z,19.70
2022-09-06T05:12:34.957Z,19.59
2022-09-06T05:15:07.762Z,19.66
2022-09-06T05:17:39.729Z,19.63
2022-09-06T05:20:12.226Z,19.63
2022-09-06T05:22:52.142Z,19.62
2022-09-06T05:25:24.116Z,19.64
2022-09-06T05:27:56.103Z,19.59
2022-09-06T05:30:28.065Z,19.52
2022-09-06T05:33:00.178Z,19.53
2022-09-06T05:35:32.135Z,19.56
2022-09-06T05:38:04.361Z,19.57
2022-09-06T05:40:36.514Z,19.61
2022-09-06T05:43:08.511Z,19.64
2022-09-06T05:45:40.632Z,19.63
2022-09-06T05:48:12.632Z,19.76
2022-09-06T05:50:44.603Z,19.70
2022-09-06T05:53:16.568Z,19.69
2022-09-06T05:55:48.568Z,19.73
2022-09-06T05:58:20.524Z,19.72
2022-09-06T06:00:52.583Z,19.77
2022-09-06T06:03:24.619Z,19.85
2022-09-06T06:05:56.730Z,19.81
2022-09-06T06:08:28.880Z,19.71
2022-09-06T06:11:02.387Z,19.68
2022-09-06T06:13:39.638Z,19.70
2022-09-06T06:16:15.193Z,19.73
2022-09-06T06:18:51.774Z,19.66
2022-09-06T06:21:30.623Z,19.74
2022-09-06T06:24:05.063Z,19.71
2022-09-06T06:26:37.520Z,19.71
2022-09-06T06:29:09.867Z,19.67
2022-09-06T06:31:42.051Z,19.67
2022-09-06T06:34:14.165Z,19.67
2022-09-06T06:36:46.136Z,19.65
2022-09-06T06:39:18.152Z,19.66
2022-09-06T06:41:50.906Z,19.68
2022-09-06T06:44:22.920Z,19.69
2022-09-06T06:46:58.005Z,19.67
2022-09-06T06:49:30.491Z,19.73
2022-09-06T06:52:02.614Z,19.70
2022-09-06T06:54:37.738Z,19.65
2022-09-06T06:57:09.708Z,19.58
2022-09-06T06:59:41.790Z,19.66
2022-09-06T07:02:15.784Z,19.79
2022-09-06T07:04:47.915Z,19.85
2022-09-06T07:07:36.763Z,19.92
2022-09-06T07:13:04.236Z,20.00
2022-09-06T07:15:36.158Z,20.01
2022-09-06T07:18:08.249Z,20.10
2022-09-06T07:26:27.969Z,20.35
2022-09-06T07:29:02.819Z,20.32
2022-09-06T07:34:29.554Z,20.41
2022-09-06T07:37:01.603Z,20.46
2022-09-06T07:39:33.603Z,20.49
2022-09-06T07:42:06.708Z,20.37
2022-09-06T07:44:38.705Z,20.36
2022-09-06T07:53:15.028Z,20.39
2022-09-06T07:55:47.725Z,20.38
2022-09-06T07:58:19.787Z,20.40
2022-09-06T08:00:51.844Z,20.45
2022-09-06T08:03:23.985Z,20.52
2022-09-06T08:06:11.480Z,20.65
2022-09-06T08:08:59.341Z,20.76
2022-09-06T08:11:35.629Z,20.67
2022-09-06T08:14:09.917Z,20.67
2022-09-06T08:16:41.971Z,20.70
2022-09-06T08:19:14.017Z,20.71
2022-09-06T08:21:46.093Z,20.72
2022-09-06T08:24:18.052Z,20.75
2022-09-06T08:26:50.359Z,20.75
2022-09-06T08:29:22.383Z,20.78
2022-09-06T08:31:54.585Z,20.79
2022-09-06T08:34:26.643Z,20.84
2022-09-06T08:36:58.593Z,20.67
2022-09-06T08:39:30.578Z,20.76
2022-09-06T08:42:07.341Z,20.80
2022-09-06T08:44:56.289Z,20.85
2022-09-06T08:47:29.367Z,20.87
2022-09-06T08:50:11.606Z,20.91
2022-09-06T08:52:49.761Z,20.97
2022-09-06T08:55:49.754Z,20.99
2022-09-06T08:58:55.648Z,21.08
2022-09-06T09:01:43.938Z,21.16
2022-09-06T09:04:22.316Z,21.23
2022-09-06T09:07:00.835Z,21.32
2022-09-06T09:09:34.531Z,21.28
2022-09-06T09:12:07.686Z,21.21
2022-09-06T09:14:43.417Z,21.31
2022-09-06T09:17:29.847Z,21.19
2022-09-06T09:20:02.013Z,21.10
2022-09-06T09:22:34.179Z,21.08
2022-09-06T09:25:08.860Z,20.98
2022-09-06T09:27:41.566Z,20.93
2022-09-06T09:33:33.687Z,20.83
2022-09-06T09:36:13.493Z,20.73
2022-09-06T09:38:51.854Z,20.75
2022-09-06T09:41:36.604Z,20.76
2022-09-06T09:44:18.070Z,20.74
2022-09-06T09:46:50.047Z,20.65
2022-09-06T09:49:21.970Z,20.56
2022-09-06T09:52:14.663Z,20.58
2022-09-06T09:54:47.832Z,20.51
2022-09-06T09:57:20.354Z,20.46
2022-09-06T10:00:04.025Z,20.44
2022-09-06T10:02:41.708Z,20.45
2022-09-06T10:05:13.736Z,20.46
2022-09-06T10:07:55.250Z,20.49
2022-09-06T10:10:32.179Z,20.60
2022-09-06T10:13:26.642Z,20.82
2022-09-06T10:16:00.723Z,20.98
2022-09-06T10:18:34.210Z,21.14
2022-09-06T10:21:19.853Z,21.16
2022-09-06T10:27:02.393Z,20.97
2022-09-06T10:30:06.715Z,20.81
2022-09-06T10:33:10.550Z,20.92
2022-09-06T10:35:42.569Z,20.87
2022-09-06T10:38:54.833Z,20.78
2022-09-06T10:42:01.829Z,20.83
2022-09-06T10:45:29.552Z,20.87
2022-09-06T10:48:52.524Z,20.83
2022-09-06T10:51:50.158Z,20.77
2022-09-06T10:54:23.956Z,20.78
2022-09-06T11:00:20.024Z,20.72
2022-09-06T11:06:14.104Z,20.77
2022-09-06T11:09:19.343Z,20.48
2022-09-06T11:12:19.220Z,20.47
2022-09-06T11:14:52.016Z,20.57
2022-09-06T11:17:41.167Z,20.70
2022-09-06T11:20:32.000Z,20.61
2022-09-06T11:23:40.779Z,20.61
2022-09-06T11:26:30.425Z,20.63
2022-09-06T11:29:08.894Z,20.68
2022-09-06T11:32:33.479Z,20.73
2022-09-06T11:35:11.224Z,20.94
2022-09-06T11:37:44.801Z,21.02
2022-09-06T11:40:28.431Z,21.18
2022-09-06T11:43:01.103Z,21.45
2022-09-06T11:45:50.011Z,21.60
2022-09-06T11:48:25.446Z,21.73
2022-09-06T11:51:06.904Z,21.82
2022-09-06T11:53:51.193Z,22.03
2022-09-06T11:56:42.047Z,22.52
2022-09-06T11:59:16.875Z,22.97
2022-09-06T12:02:30.413Z,23.54
2022-09-06T12:05:03.986Z,23.49
2022-09-06T12:07:39.034Z,23.65
2022-09-06T12:10:29.761Z,23.76
2022-09-06T12:13:01.792Z,23.77
2022-09-06T12:15:52.876Z,23.99
2022-09-06T12:18:50.894Z,24.39
2022-09-06T12:21:52.463Z,24.27
2022-09-06T12:24:38.596Z,23.78
2022-09-06T12:27:16.698Z,23.54
2022-09-06T12:30:02.278Z,23.45
2022-09-06T12:32:40.630Z,23.47
2022-09-06T12:38:17.283Z,24.12
2022-09-06T12:40:58.631Z,24.61
2022-09-06T12:43:36.171Z,24.68
2022-09-06T12:46:08.477Z,24.78
2022-09-06T12:48:44.432Z,24.51
2022-09-06T12:51:21.270Z,24.56
2022-09-06T12:54:04.293Z,24.47
2022-09-06T12:56:36.352Z,24.58
2022-09-06T12:59:23.567Z,24.61
2022-09-06T13:02:03.293Z,24.45
2022-09-06T13:04:45.011Z,24.27
2022-09-06T13:07:20.896Z,24.33
2022-09-06T13:09:56.278Z,24.34
2022-09-06T13:12:36.725Z,24.39
2022-09-06T13:15:20.214Z,24.44
2022-09-06T13:17:54.821Z,24.44
2022-09-06T13:20:30.873Z,24.71
2022-09-06T13:23:20.683Z,25.09
2022-09-06T13:25:54.530Z,25.50
2022-09-06T13:28:30.762Z,26.09
2022-09-06T13:31:18.081Z,26.37
2022-09-06T13:33:58.530Z,26.63
2022-09-06T13:36:32.362Z,26.90
2022-09-06T13:39:04.638Z,26.50
2022-09-06T13:41:41.288Z,26.30
2022-09-06T13:44:16.133Z,26.15
2022-09-06T13:46:53.619Z,25.79
2022-09-06T13:49:26.400Z,25.65
2022-09-06T13:52:02.158Z,25.46
2022-09-06T13:54:34.711Z,25.31
2022-09-06T13:57:06.659Z,25.26
2022-09-06T13:59:38.619Z,25.12
2022-09-06T14:02:16.082Z,24.99
2022-09-06T14:04:48.123Z,24.99
2022-09-06T14:07:20.148Z,24.99
2022-09-06T14:09:52.182Z,25.00
2022-09-06T14:12:24.149Z,25.08
2022-09-06T14:14:56.134Z,25.01
2022-09-06T14:17:28.216Z,24.80
2022-09-06T14:20:00.449Z,24.73
2022-09-06T14:22:32.533Z,24.82
2022-09-06T14:25:07.061Z,24.92
2022-09-06T14:27:39.242Z,24.97
2022-09-06T14:30:12.332Z,24.83
2022-09-06T14:32:44.306Z,24.72
2022-09-06T14:35:16.396Z,24.59
2022-09-06T14:37:48.406Z,24.42
2022-09-06T14:40:20.452Z,24.27
2022-09-06T14:42:52.983Z,24.44
2022-09-06T14:45:25.814Z,24.45
2022-09-06T14:47:57.785Z,24.50
2022-09-06T14:50:31.406Z,24.51
2022-09-06T14:53:08.762Z,24.52
2022-09-06T14:55:47.174Z,24.62
2022-09-06T14:58:19.178Z,24.64
2022-09-06T15:00:51.158Z,24.77
2022-09-06T15:03:23.172Z,24.79
2022-09-06T15:05:55.184Z,24.80
2022-09-06T15:08:27.159Z,24.45
2022-09-06T15:10:59.383Z,24.45
2022-09-06T15:13:31.379Z,24.43
2022-09-06T15:16:05.165Z,24.46
2022-09-06T15:18:37.219Z,24.39
2022-09-06T15:21:17.079Z,24.46
2022-09-06T15:23:49.610Z,24.38
2022-09-06T15:26:22.039Z,24.33
2022-09-06T15:28:54.068Z,24.27
2022-09-06T15:31:26.407Z,24.25
2022-09-06T15:33:59.259Z,24.18
2022-09-06T15:36:32.004Z,23.98
2022-09-06T15:39:05.973Z,23.99
2022-09-06T15:41:40.480Z,24.03
2022-09-06T15:44:16.170Z,23.92
2022-09-06T15:46:54.023Z,23.74
2022-09-06T15:49:31.284Z,23.73
2022-09-06T15:52:06.024Z,23.74
2022-09-06T15:54:56.387Z,23.69
2022-09-06T15:57:29.198Z,23.60
2022-09-06T16:00:01.372Z,23.48
2022-09-06T16:02:33.495Z,23.33
2022-09-06T16:05:06.744Z,23.24
2022-09-06T16:07:43.108Z,23.15
2022-09-06T16:10:15.409Z,23.08
2022-09-06T16:12:50.583Z,23.07
2022-09-06T16:15:22.739Z,23.01
2022-09-06T16:17:55.875Z,22.89
2022-09-06T16:20:28.686Z,22.85
2022-09-06T16:23:03.702Z,22.84
2022-09-06T16:25:35.709Z,22.80
2022-09-06T16:28:07.802Z,22.74
2022-09-06T16:30:44.203Z,22.74
2022-09-06T16:33:16.306Z,22.71
2022-09-06T16:35:48.488Z,22.72
2022-09-06T16:38:20.682Z,22.66
2022-09-06T16:40:52.817Z,22.69
2022-09-06T16:43:26.266Z,22.61
2022-09-06T16:46:01.371Z,22.62
2022-09-06T16:48:34.263Z,22.63
2022-09-06T16:51:18.547Z,22.67
2022-09-06T16:53:52.159Z,22.53
2022-09-06T16:56:27.808Z,22.52
2022-09-06T16:59:02.951Z,22.50
2022-09-06T17:01:36.518Z,22.51
2022-09-06T17:04:09.748Z,22.52
2022-09-06T17:06:44.847Z,22.49
2022-09-06T17:09:20.091Z,22.46
2022-09-06T17:11:52.086Z,22.48
2022-09-06T17:14:24.119Z,22.43
2022-09-06T17:17:04.965Z,22.45
2022-09-06T17:19:41.407Z,22.40
2022-09-06T17:22:13.849Z,22.40
2022-09-06T17:24:45.886Z,22.37
2022-09-06T17:27:17.995Z,22.28
2022-09-06T17:29:50.086Z,22.27
2022-09-06T17:32:22.147Z,22.22
2022-09-06T17:34:54.145Z,22.18
2022-09-06T17:37:26.128Z,22.11
2022-09-06T17:39:58.350Z,22.09
2022-09-06T17:42:31.686Z,22.06
2022-09-06T17:45:03.943Z,22.02
2022-09-06T17:47:35.977Z,21.97
2022-09-06T17:50:08.573Z,21.92
2022-09-06T17:52:40.661Z,21.89
2022-09-06T17:55:12.844Z,21.81
2022-09-06T17:57:44.904Z,21.78
2022-09-06T18:00:17.677Z,21.70
2022-09-06T18:02:49.695Z,21.69
2022-09-06T18:05:21.840Z,21.66
2022-09-06T18:07:53.854Z,21.60
2022-09-06T18:10:26.010Z,21.57
2022-09-06T18:13:01.182Z,21.51
2022-09-06T18:15:39.307Z,21.43
2022-09-06T18:18:11.738Z,21.40
2022-09-06T18:20:43.812Z,21.37
2022-09-06T18:23:15.800Z,21.35
2022-09-06T18:26:08.209Z,21.27
2022-09-06T18:28:40.810Z,21.21
2022-09-06T18:31:18.688Z,21.17
2022-09-06T18:33:51.756Z,21.09
2022-09-06T18:36:25.114Z,21.08
2022-09-06T18:39:06.252Z,21.04
2022-09-06T18:41:56.649Z,20.97
2022-09-06T18:44:32.394Z,20.97
2022-09-06T18:47:08.594Z,20.89
2022-09-06T18:49:43.982Z,20.86
2022-09-06T18:52:16.548Z,20.79
2022-09-06T18:54:49.589Z,20.75
2022-09-06T18:57:21.607Z,20.72
2022-09-06T18:59:53.628Z,20.69
2022-09-06T19:02:27.753Z,20.62
2022-09-06T19:04:59.812Z,20.61
2022-09-06T19:07:32.269Z,20.54
2022-09-06T19:10:05.253Z,20.53
2022-09-06T19:12:37.287Z,20.50
2022-09-06T19:15:10.872Z,20.42
2022-09-06T19:17:43.215Z,20.38
2022-09-06T19:20:15.206Z,20.37
2022-09-06T19:22:50.873Z,20.37
2022-09-06T19:25:23.103Z,20.33
2022-09-06T19:27:55.213Z,20.26
2022-09-06T19:30:27.353Z,20.20
2022-09-06T19:32:59.374Z,20.19
2022-09-06T19:35:31.340Z,20.15
2022-09-06T19:38:03.415Z,20.16
2022-09-06T19:40:35.384Z,20.08
2022-09-06T19:43:07.508Z,20.10
2022-09-06T19:45:40.559Z,20.06
2022-09-06T19:48:12.619Z,20.03
2022-09-06T19:50:44.594Z,20.00
2022-09-06T19:53:16.603Z,19.97
2022-09-06T19:55:48.555Z,19.98
2022-09-06T19:58:20.563Z,19.99
2022-09-06T20:00:53.822Z,19.89
2022-09-06T20:03:25.900Z,19.86
2022-09-06T20:05:59.550Z,19.89
2022-09-06T20:08:31.786Z,19.88
2022-09-06T20:11:06.330Z,19.85
2022-09-06T20:13:39.470Z,19.81
2022-09-06T20:16:13.046Z,19.79
2022-09-06T20:18:45.222Z,19.79
2022-09-06T20:21:21.145Z,19.74
2022-09-06T20:23:56.479Z,19.67
2022-09-06T20:26:30.576Z,19.69
2022-09-06T20:29:05.077Z,19.68
2022-09-06T20:31:38.577Z,19.64
2022-09-06T20:34:12.910Z,19.62
2022-09-06T20:36:44.864Z,19.62
2022-09-06T20:39:17.063Z,19.60
2022-09-06T20:41:49.123Z,19.61
2022-09-06T20:44:21.222Z,19.57
2022-09-06T20:46:53.256Z,19.57
2022-09-06T20:49:25.392Z,19.58
2022-09-06T20:51:57.400Z,19.56
2022-09-06T20:54:29.685Z,19.54
2022-09-06T20:57:01.695Z,19.50
2022-09-06T20:59:33.945Z,19.45
2022-09-06T21:02:06.462Z,19.41
2022-09-06T21:04:38.473Z,19.41
2022-09-06T21:07:10.432Z,19.35
2022-09-06T21:09:42.564Z,19.30
2022-09-06T21:12:14.533Z,19.29
2022-09-06T21:14:46.489Z,19.27
2022-09-06T21:17:18.481Z,19.22
2022-09-06T21:19:50.483Z,19.23
2022-09-06T21:22:22.445Z,19.20
2022-09-06T21:24:54.401Z,19.18
2022-09-06T21:27:26.352Z,19.14
2022-09-06T21:29:58.376Z,19.16
2022-09-06T21:32:30.336Z,19.13
2022-09-06T21:35:02.343Z,19.09
2022-09-06T21:37:34.384Z,19.11
2022-09-06T21:40:07.275Z,19.10
2022-09-06T21:42:39.317Z,19.07
2022-09-06T21:45:11.568Z,19.04
2022-09-06T21:47:43.641Z,18.98
2022-09-06T21:50:15.753Z,18.96
2022-09-06T21:52:47.730Z,18.96
2022-09-06T21:55:19.794Z,18.95
2022-09-06T21:57:51.757Z,18.93
2022-09-06T22:00:23.773Z,18.90
2022-09-06T22:02:55.745Z,18.87
2022-09-06T22:05:27.822Z,18.88
2022-09-06T22:07:59.967Z,18.88
2022-09-06T22:10:32.283Z,18.89
2022-09-06T22:13:04.515Z,18.84
2022-09-06T22:15:40.062Z,18.82
2022-09-06T22:18:12.693Z,18.79
2022-09-06T22:20:44.652Z,18.79
2022-09-06T22:23:16.615Z,18.78
2022-09-06T22:25:48.620Z,18.76
2022-09-06T22:28:21.372Z,18.76
2022-09-06T22:30:53.699Z,18.74
2022-09-06T22:33:26.292Z,18.71
2022-09-06T22:36:00.382Z,18.69
2022-09-06T22:38:33.333Z,18.68
2022-09-06T22:41:05.673Z,18.64
2022-09-06T22:43:37.743Z,18.62
2022-09-06T22:46:11.279Z,18.61
2022-09-06T22:48:43.336Z,18.57
2022-09-06T22:51:15.514Z,18.55
2022-09-06T22:53:47.552Z,18.54
2022-09-06T22:56:19.915Z,18.54
2022-09-06T22:58:51.940Z,18.51
2022-09-06T23:01:24.070Z,18.51
2022-09-06T23:03:56.080Z,18.50
2022-09-06T23:06:28.274Z,18.49
2022-09-06T23:09:00.412Z,18.45
2022-09-06T23:11:33.075Z,18.42
2022-09-06T23:14:05.266Z,18.37
2022-09-06T23:16:39.771Z,18.32
2022-09-06T23:23:12.739Z,18.32
2022-09-06T23:25:44.685Z,18.29
2022-09-06T23:32:26.112Z,18.28
2022-09-06T23:34:58.071Z,18.26
2022-09-06T23:37:30.204Z,18.26
2022-09-06T23:40:05.823Z,18.30
2022-09-06T23:42:40.840Z,18.30
2022-09-06T23:45:13.114Z,18.29
2022-09-06T23:47:45.061Z,18.29
2022-09-06T23:50:17.117Z,18.30
2022-09-06T23:52:49.073Z,18.29
2022-09-06T23:55:21.088Z,18.28
2022-09-06T23:57:53.070Z,18.30
